Time;durP1;ratioP1;P1;durP2;ratioP2;P2;SDS_P1;SDS_P2;PMS_P1;PMS_P2;Temp;Humidity;BMP_temperature;BMP_pressure;BME280_temperature;BME280_humidity;BME280_pressure;Samples;Min_cycle;Max_cycle;Signal;HPM_P1;HPM_P2
2023/08/18 00:01:39;;;;;;;3.47;2.07;;;20.10;99.90;;;;;;5098531;28;20223;-55
2023/08/18 00:04:06;;;;;;;1.50;1.30;;;20.20;99.90;;;;;;5092078;28;20208;-54
2023/08/18 00:06:33;;;;;;;1.53;1.40;;;20.20;99.90;;;;;;5102804;28;20761;-54
2023/08/18 00:09:01;;;;;;;2.17;2.07;;;20.10;99.90;;;;;;5088110;28;20670;-55
2023/08/18 00:11:28;;;;;;;3.00;2.07;;;20.10;99.90;;;;;;5087831;28;20196;-55
2023/08/18 00:13:56;;;;;;;1.70;1.60;;;20.10;99.90;;;;;;5099444;28;20207;-55
2023/08/18 00:16:24;;;;;;;1.60;1.47;;;20.10;99.90;;;;;;5088717;28;20267;-56
2023/08/18 00:18:51;;;;;;;1.90;1.63;;;20.10;99.90;;;;;;5084646;28;20361;-55
2023/08/18 00:21:18;;;;;;;1.83;1.50;;;20.00;99.90;;;;;;5086253;28;20258;-55
2023/08/18 00:23:45;;;;;;;1.43;1.10;;;20.00;99.90;;;;;;5087546;28;20201;-55
2023/08/18 00:26:12;;;;;;;2.97;1.30;;;20.00;99.90;;;;;;5093128;28;20277;-54
2023/08/18 00:28:39;;;;;;;1.73;1.60;;;20.00;99.90;;;;;;5090578;28;20200;-55
2023/08/18 00:31:06;;;;;;;1.70;1.60;;;20.00;99.90;;;;;;5098597;28;20197;-55
2023/08/18 00:33:35;;;;;;;2.73;1.30;;;20.00;99.90;;;;;;5106198;28;20196;-54
2023/08/18 00:36:02;;;;;;;1.97;1.87;;;20.00;99.90;;;;;;5100830;28;20228;-55
2023/08/18 00:38:29;;;;;;;2.47;2.00;;;20.00;99.90;;;;;;5090823;28;20208;-54
2023/08/18 00:40:56;;;;;;;2.20;1.80;;;20.00;99.90;;;;;;5098091;28;20303;-55
2023/08/18 00:43:23;;;;;;;3.40;1.87;;;20.00;99.90;;;;;;5099012;28;20200;-54
2023/08/18 00:45:53;;;;;;;5.63;1.87;;;20.00;99.90;;;;;;5089251;28;20718;-55
2023/08/18 00:48:20;;;;;;;2.77;1.50;;;20.00;99.90;;;;;;5104195;28;20249;-54
2023/08/18 00:50:49;;;;;;;2.40;1.77;;;20.00;99.90;;;;;;5107175;28;20196;-54
2023/08/18 00:53:17;;;;;;;3.20;1.60;;;20.00;99.90;;;;;;5090860;28;20266;-55
2023/08/18 00:55:45;;;;;;;1.70;1.60;;;20.10;99.90;;;;;;5097997;28;20215;-54
2023/08/18 00:58:12;;;;;;;2.20;1.50;;;20.10;99.90;;;;;;5102983;28;20618;-54
2023/08/18 01:00:40;;;;;;;1.60;1.60;;;20.00;99.90;;;;;;5110155;28;20596;-56
2023/08/18 01:03:07;;;;;;;2.03;1.93;;;20.00;99.90;;;;;;5098480;28;20192;-54
2023/08/18 01:05:34;;;;;;;2.30;2.03;;;20.00;99.90;;;;;;5087717;28;20269;-55
2023/08/18 01:08:06;;;;;;;1.70;1.40;;;19.90;99.90;;;;;;5091920;28;20621;-55
2023/08/18 01:10:41;;;;;;;1.93;1.63;;;19.90;99.90;;;;;;5095048;28;20249;-55
2023/08/18 01:13:14;;;;;;;1.43;1.43;;;19.80;99.90;;;;;;5092850;28;20199;-54
2023/08/18 01:15:44;;;;;;;1.57;1.47;;;19.90;99.90;;;;;;5102195;28;20219;-55
2023/08/18 01:18:12;;;;;;;2.50;1.80;;;19.80;99.90;;;;;;5105597;28;20236;-55
2023/08/18 01:20:39;;;;;;;4.13;1.70;;;19.80;99.90;;;;;;5098289;28;20721;-55
2023/08/18 01:23:10;;;;;;;2.67;2.23;;;19.70;99.90;;;;;;5089462;28;20262;-55
2023/08/18 01:25:37;;;;;;;1.97;1.30;;;19.70;99.90;;;;;;5088023;28;20308;-55
2023/08/18 01:28:08;;;;;;;4.27;1.90;;;19.70;99.90;;;;;;5095573;28;20212;-56
2023/08/18 01:30:39;;;;;;;1.93;1.43;;;19.70;99.90;;;;;;5082285;28;20210;-56
2023/08/18 01:33:12;;;;;;;2.57;1.50;;;19.60;99.90;;;;;;5089538;28;20207;-55
2023/08/18 01:35:41;;;;;;;1.30;1.30;;;19.60;99.90;;;;;;5089143;28;20303;-55
2023/08/18 01:38:12;;;;;;;3.43;1.60;;;19.60;99.90;;;;;;5069802;28;20201;-55
2023/08/18 01:40:41;;;;;;;1.50;1.40;;;19.70;99.90;;;;;;5069779;28;20259;-55
2023/08/18 01:43:08;;;;;;;1.20;1.03;;;19.70;99.90;;;;;;5079161;28;20214;-55
2023/08/18 01:45:36;;;;;;;1.57;1.57;;;19.70;99.90;;;;;;5091294;28;20273;-54
2023/08/18 01:48:07;;;;;;;2.17;1.97;;;19.70;99.90;;;;;;5109523;28;20196;-55
2023/08/18 01:50:34;;;;;;;1.43;1.43;;;19.70;99.90;;;;;;5102694;28;20200;-55
2023/08/18 01:53:01;;;;;;;1.73;1.63;;;19.60;99.90;;;;;;5101464;28;20567;-55
2023/08/18 01:55:29;;;;;;;1.37;1.27;;;19.60;99.90;;;;;;5110168;28;20323;-55
2023/08/18 01:57:56;;;;;;;1.53;1.53;;;19.60;99.90;;;;;;5099026;28;20208;-55
2023/08/18 02:00:23;;;;;;;2.37;1.47;;;19.60;99.90;;;;;;5093191;28;20269;-55
2023/08/18 02:02:50;;;;;;;2.03;1.40;;;19.60;99.90;;;;;;5101442;28;20272;-55
2023/08/18 02:05:17;;;;;;;2.07;1.97;;;19.60;99.90;;;;;;5110143;28;20223;-55
2023/08/18 02:07:44;;;;;;;2.13;1.83;;;19.50;99.90;;;;;;5110089;28;20200;-55
2023/08/18 02:10:11;;;;;;;1.87;1.77;;;19.60;99.90;;;;;;5099639;28;20516;-55
2023/08/18 02:12:39;;;;;;;1.43;1.40;;;19.50;99.90;;;;;;5102073;28;20732;-55
2023/08/18 02:15:07;;;;;;;1.67;1.60;;;19.50;99.90;;;;;;5109120;28;20221;-55
2023/08/18 02:17:34;;;;;;;2.17;1.40;;;19.50;99.90;;;;;;5100621;28;20242;-54
2023/08/18 02:20:01;;;;;;;2.20;1.40;;;19.50;99.90;;;;;;5094733;28;20253;-55
2023/08/18 02:22:28;;;;;;;1.40;1.40;;;19.40;99.90;;;;;;5103772;28;20759;-54
2023/08/18 02:24:55;;;;;;;2.27;1.50;;;19.50;99.90;;;;;;5101237;28;20220;-55
2023/08/18 02:27:22;;;;;;;2.10;1.90;;;19.50;99.90;;;;;;5093012;28;20264;-55
2023/08/18 02:29:51;;;;;;;1.13;1.10;;;19.60;99.90;;;;;;5093290;28;20196;-55
2023/08/18 02:32:18;;;;;;;1.83;1.77;;;19.50;99.90;;;;;;5100153;28;20279;-55
2023/08/18 02:34:45;;;;;;;1.33;1.33;;;19.50;99.90;;;;;;5100642;28;20204;-55
2023/08/18 02:37:12;;;;;;;1.50;1.40;;;19.40;99.90;;;;;;5104745;28;20203;-55
2023/08/18 02:42:05;;;;;;;2.07;1.93;;;19.40;99.90;;;;;;5127737;22;20229;-52
2023/08/18 02:44:32;;;;;;;1.60;1.50;;;19.40;99.90;;;;;;5073156;28;20205;-51
2023/08/18 02:47:00;;;;;;;2.00;1.80;;;19.30;99.90;;;;;;5072537;28;20197;-50
2023/08/18 02:49:27;;;;;;;1.53;1.50;;;19.40;99.90;;;;;;5073453;28;20201;-50
2023/08/18 02:51:54;;;;;;;1.40;1.33;;;19.30;99.90;;;;;;5092128;28;20220;-51
2023/08/18 02:54:21;;;;;;;1.23;1.13;;;19.40;99.90;;;;;;5086503;28;20274;-50
2023/08/18 02:56:48;;;;;;;2.30;1.13;;;19.40;99.90;;;;;;5082502;28;20193;-50
2023/08/18 02:59:17;;;;;;;2.63;1.40;;;19.40;99.90;;;;;;5087854;28;20553;-50
2023/08/18 03:01:44;;;;;;;2.00;1.70;;;19.50;99.90;;;;;;5081962;28;20225;-50
2023/08/18 03:04:14;;;;;;;1.97;1.63;;;19.50;99.90;;;;;;5093213;28;20246;-51
2023/08/18 03:06:41;;;;;;;2.00;1.90;;;19.50;99.90;;;;;;5093348;28;20315;-50
2023/08/18 03:09:08;;;;;;;1.87;1.77;;;19.50;99.90;;;;;;5083839;28;20201;-51
2023/08/18 03:11:35;;;;;;;1.80;1.70;;;19.40;99.90;;;;;;5081395;28;20629;-50
2023/08/18 03:14:02;;;;;;;2.10;1.90;;;19.50;99.90;;;;;;5083685;28;20205;-50
2023/08/18 03:16:29;;;;;;;4.60;1.63;;;19.50;99.90;;;;;;5093181;28;20670;-50
2023/08/18 03:18:56;;;;;;;1.27;1.20;;;19.50;99.90;;;;;;5088822;28;20222;-50
2023/08/18 03:21:24;;;;;;;2.40;1.50;;;19.50;99.90;;;;;;5080980;28;20659;-54
2023/08/18 03:23:51;;;;;;;2.40;1.80;;;19.50;99.90;;;;;;5087188;28;20196;-51
2023/08/18 03:26:18;;;;;;;1.53;1.43;;;19.40;99.90;;;;;;5069188;28;20570;-50
2023/08/18 03:28:45;;;;;;;2.20;1.53;;;19.40;99.90;;;;;;5079701;28;20577;-51
2023/08/18 03:31:12;;;;;;;2.10;2.00;;;19.30;99.90;;;;;;5072654;28;20217;-50
2023/08/18 03:33:38;;;;;;;1.57;1.37;;;19.30;99.90;;;;;;5072368;28;20209;-51
2023/08/18 03:36:05;;;;;;;2.33;1.73;;;19.30;99.90;;;;;;5072767;28;20274;-50
2023/08/18 03:38:33;;;;;;;3.00;1.40;;;19.20;99.90;;;;;;5079936;28;20670;-51
2023/08/18 03:41:03;;;;;;;1.83;1.23;;;19.10;99.90;;;;;;5073417;28;20651;-50
2023/08/18 03:43:30;;;;;;;1.60;1.60;;;19.10;99.90;;;;;;5083923;28;20739;-51
2023/08/18 03:45:59;;;;;;;2.93;1.40;;;19.10;99.90;;;;;;5092641;28;20291;-50
2023/08/18 03:48:26;;;;;;;5.00;1.60;;;19.00;99.90;;;;;;5083125;28;20216;-50
2023/08/18 03:50:52;;;;;;;1.67;1.20;;;19.00;99.90;;;;;;5084169;28;20228;-51
2023/08/18 03:53:22;;;;;;;2.47;1.40;;;18.90;99.90;;;;;;5092348;28;20247;-50
2023/08/18 03:55:52;;;;;;;2.53;2.33;;;18.90;99.90;;;;;;5092469;28;20678;-51
2023/08/18 03:58:19;;;;;;;3.53;1.40;;;18.90;99.90;;;;;;5082611;28;20201;-50
2023/08/18 04:00:46;;;;;;;2.70;2.17;;;18.90;99.90;;;;;;5079917;28;20228;-50
2023/08/18 04:03:13;;;;;;;2.13;1.77;;;18.90;99.90;;;;;;5079527;28;20305;-50
2023/08/18 04:05:46;;;;;;;1.57;1.47;;;18.90;99.90;;;;;;5083756;28;20551;-50
2023/08/18 04:08:12;;;;;;;1.57;1.47;;;18.90;99.90;;;;;;5092163;28;20616;-50
2023/08/18 04:10:40;;;;;;;1.97;1.87;;;18.90;99.90;;;;;;5092070;28;20216;-50
2023/08/18 04:13:08;;;;;;;2.40;1.70;;;18.90;99.90;;;;;;5079947;28;20216;-50
2023/08/18 04:15:35;;;;;;;1.60;1.50;;;18.90;99.90;;;;;;5079197;28;20196;-51
2023/08/18 04:18:02;;;;;;;1.30;1.30;;;18.90;99.90;;;;;;5092205;28;20204;-51
2023/08/18 04:20:29;;;;;;;1.57;1.30;;;18.90;99.90;;;;;;5091989;28;20216;-51
2023/08/18 04:22:56;;;;;;;1.87;1.53;;;18.90;99.90;;;;;;5091675;28;20311;-50
2023/08/18 04:25:23;;;;;;;1.87;1.70;;;18.80;99.90;;;;;;5081774;28;20609;-51
2023/08/18 04:27:50;;;;;;;3.50;1.90;;;18.80;99.90;;;;;;5073940;28;20201;-51
2023/08/18 04:30:18;;;;;;;1.70;1.23;;;18.90;99.90;;;;;;5073623;28;20266;-51
2023/08/18 04:32:45;;;;;;;3.40;1.53;;;18.90;99.90;;;;;;5083212;28;20189;-50
2023/08/18 04:35:12;;;;;;;2.50;1.40;;;18.80;99.90;;;;;;5091588;28;20575;-50
2023/08/18 04:37:39;;;;;;;1.63;1.40;;;18.80;99.90;;;;;;5085750;28;20208;-50
2023/08/18 04:40:07;;;;;;;1.90;1.20;;;18.80;99.90;;;;;;5083049;28;20212;-51
2023/08/18 04:42:34;;;;;;;2.23;1.30;;;18.80;99.90;;;;;;5091626;28;20220;-50
2023/08/18 04:45:01;;;;;;;1.50;1.40;;;18.80;99.90;;;;;;5082021;28;20197;-50
2023/08/18 04:47:30;;;;;;;1.83;1.50;;;18.80;99.90;;;;;;5080023;28;20461;-50
2023/08/18 04:49:57;;;;;;;1.63;1.53;;;18.80;99.90;;;;;;5080142;28;20196;-50
2023/08/18 04:52:24;;;;;;;1.43;1.37;;;18.80;99.90;;;;;;5076003;28;20196;-50
2023/08/18 04:54:51;;;;;;;1.27;1.17;;;18.90;99.90;;;;;;5080854;28;20278;-50
2023/08/18 04:57:18;;;;;;;2.00;1.30;;;18.90;99.90;;;;;;5084518;28;20212;-51
2023/08/18 04:59:45;;;;;;;1.77;1.63;;;18.90;99.90;;;;;;5091310;28;20204;-50
2023/08/18 05:02:12;;;;;;;2.90;1.50;;;19.00;99.90;;;;;;5080042;28;20209;-50
2023/08/18 05:04:40;;;;;;;3.90;1.80;;;19.00;99.90;;;;;;5069866;28;20209;-50
2023/08/18 05:07:07;;;;;;;1.50;1.20;;;19.00;99.90;;;;;;5082656;28;20208;-50
2023/08/18 05:09:34;;;;;;;1.67;1.40;;;19.10;99.90;;;;;;5085124;28;20200;-50
2023/08/18 05:12:02;;;;;;;1.27;1.27;;;19.10;99.90;;;;;;5068858;28;20304;-50
2023/08/18 05:14:29;;;;;;;4.20;1.23;;;19.10;99.90;;;;;;5078369;28;20214;-50
2023/08/18 05:16:56;;;;;;;3.50;1.60;;;19.20;99.90;;;;;;5068080;28;20227;-50
2023/08/18 05:19:23;;;;;;;3.10;1.20;;;19.30;99.90;;;;;;5069340;28;20687;-50
2023/08/18 05:21:52;;;;;;;2.17;1.00;;;19.40;99.90;;;;;;5074896;28;20286;-50
2023/08/18 05:24:19;;;;;;;1.17;1.17;;;19.80;99.90;;;;;;5065723;28;20229;-51
2023/08/18 05:26:46;;;;;;;3.70;1.30;;;20.50;99.90;;;;;;5078460;28;20663;-50
2023/08/18 05:29:13;;;;;;;1.27;1.20;;;21.40;99.90;;;;;;5073123;28;20684;-51
2023/08/18 05:31:40;;;;;;;2.37;1.57;;;22.20;99.90;;;;;;5067625;28;20732;-51
2023/08/18 05:34:07;;;;;;;2.67;1.10;;;22.70;99.90;;;;;;5069435;28;20266;-51
2023/08/18 05:36:34;;;;;;;1.10;1.03;;;23.40;99.90;;;;;;5067152;28;20208;-50
2023/08/18 05:39:03;;;;;;;1.63;1.20;;;23.80;99.90;;;;;;5069817;28;20682;-50
2023/08/18 05:41:30;;;;;;;3.47;1.70;;;24.30;99.90;;;;;;5067712;28;20702;-51
2023/08/18 05:43:57;;;;;;;2.00;1.10;;;24.60;99.90;;;;;;5068673;28;20278;-50
2023/08/18 05:46:24;;;;;;;3.10;1.10;;;25.10;99.90;;;;;;5070512;28;20263;-51
2023/08/18 05:48:51;;;;;;;2.07;1.20;;;25.50;99.90;;;;;;5084456;28;20249;-50
2023/08/18 05:51:18;;;;;;;3.50;1.30;;;25.60;99.90;;;;;;5083771;28;20220;-52
2023/08/18 05:53:48;;;;;;;1.60;1.27;;;25.60;99.90;;;;;;5069131;28;20195;-50
2023/08/18 05:56:17;;;;;;;1.30;1.00;;;25.80;99.90;;;;;;5070296;28;20196;-51
2023/08/18 05:58:45;;;;;;;1.13;1.00;;;26.30;99.90;;;;;;5064974;28;20201;-50
2023/08/18 06:01:14;;;;;;;3.43;1.70;;;26.80;99.90;;;;;;5075371;28;20729;-51
2023/08/18 06:03:42;;;;;;;3.33;1.90;;;27.10;99.90;;;;;;5059353;28;20217;-51
2023/08/18 06:06:09;;;;;;;1.20;1.20;;;26.80;99.90;;;;;;5055681;28;20259;-51
2023/08/18 06:08:36;;;;;;;2.00;1.37;;;26.40;99.90;;;;;;5076617;28;20200;-50
2023/08/18 06:11:03;;;;;;;2.83;1.50;;;26.20;99.90;;;;;;5089366;28;20221;-51
2023/08/18 06:13:32;;;;;;;5.28;2.22;;;26.70;99.90;;;;;;5073758;28;20753;-50
2023/08/18 06:16:04;;;;;;;3.47;0.90;;;27.00;99.90;;;;;;5073798;28;20209;-51
2023/08/18 06:18:32;;;;;;;2.70;1.40;;;27.40;99.90;;;;;;5074124;28;20207;-51
2023/08/18 06:21:00;;;;;;;2.80;1.75;;;28.20;99.90;;;;;;5073943;28;20677;-51
2023/08/18 06:23:27;;;;;;;1.75;1.38;;;28.70;99.90;;;;;;5073661;28;20225;-52
2023/08/18 06:25:57;;;;;;;4.28;1.77;;;29.10;99.90;;;;;;5082995;28;20259;-51
2023/08/18 06:28:26;;;;;;;2.30;1.48;;;29.00;99.90;;;;;;5078509;28;20292;-50
2023/08/18 06:30:54;;;;;;;4.13;1.67;;;29.10;99.90;;;;;;5073733;28;20856;-52
2023/08/18 06:33:21;;;;;;;1.60;1.02;;;29.40;99.90;;;;;;5073517;28;20270;-51
2023/08/18 06:35:49;;;;;;;4.35;1.65;;;29.30;99.90;;;;;;5073836;28;20205;-51
2023/08/18 06:38:16;;;;;;;2.08;1.95;;;29.40;99.90;;;;;;5062681;28;20230;-51
2023/08/18 06:40:45;;;;;;;3.83;2.28;;;29.60;99.90;;;;;;5065410;28;20286;-51
2023/08/18 06:43:12;;;;;;;0.88;0.70;;;29.40;99.90;;;;;;5076007;28;20299;-50
2023/08/18 06:45:39;;;;;;;0.80;0.77;;;29.30;99.90;;;;;;5085974;28;20220;-51
2023/08/18 06:48:08;;;;;;;2.70;0.90;;;29.90;99.90;;;;;;5085116;28;20203;-50
2023/08/18 06:50:36;;;;;;;0.93;0.93;;;30.40;99.90;;;;;;5076828;28;20237;-51
2023/08/18 06:53:03;;;;;;;7.00;1.35;;;30.20;99.90;;;;;;5073344;28;20203;-51
2023/08/18 06:55:31;;;;;;;2.15;1.38;;;30.00;99.90;;;;;;5078179;28;20645;-51
2023/08/18 06:57:58;;;;;;;2.53;1.52;;;30.30;99.90;;;;;;5084464;28;20196;-52
2023/08/18 07:00:25;;;;;;;4.18;1.30;;;30.80;99.90;;;;;;5093787;28;20224;-53
2023/08/18 07:02:53;;;;;;;2.92;1.35;;;30.60;99.90;;;;;;5093351;28;20243;-54
2023/08/18 07:05:23;;;;;;;1.13;0.95;;;30.50;99.90;;;;;;5093454;28;20200;-53
2023/08/18 07:07:50;;;;;;;2.42;1.10;;;30.50;99.90;;;;;;5074427;28;20208;-51
2023/08/18 07:10:17;;;;;;;3.80;1.15;;;30.80;99.90;;;;;;5076981;28;21011;-51
2023/08/18 07:12:45;;;;;;;0.90;0.90;;;31.30;99.90;;;;;;5072078;28;20278;-52
2023/08/18 07:15:12;;;;;;;1.85;1.38;;;31.40;99.90;;;;;;5061889;28;20322;-51
2023/08/18 07:17:39;;;;;;;1.73;1.05;;;31.60;99.90;;;;;;5069390;28;20204;-50
2023/08/18 07:20:10;;;;;;;1.40;1.30;;;31.90;99.90;;;;;;5082593;28;20213;-50
2023/08/18 07:22:38;;;;;;;2.05;1.02;;;31.70;99.90;;;;;;5083426;28;20228;-51
2023/08/18 07:25:07;;;;;;;1.63;1.30;;;32.00;99.90;;;;;;5069395;28;20205;-51
2023/08/18 07:27:34;;;;;;;1.70;1.40;;;32.10;99.60;;;;;;5072998;28;20205;-51
2023/08/18 07:30:01;;;;;;;0.73;0.73;;;32.20;99.90;;;;;;5059525;28;20222;-51
2023/08/18 07:32:28;;;;;;;2.03;1.27;;;32.00;99.90;;;;;;5075824;28;20197;-51
2023/08/18 07:34:55;;;;;;;2.40;1.25;;;31.90;99.90;;;;;;5091124;28;20669;-51
2023/08/18 07:37:22;;;;;;;2.08;1.27;;;32.00;99.80;;;;;;5078047;28;20205;-51
2023/08/18 07:39:50;;;;;;;3.45;1.17;;;32.10;98.80;;;;;;5069935;28;20670;-51
2023/08/18 07:42:17;;;;;;;2.58;1.10;;;32.50;99.60;;;;;;5076177;28;20250;-51
2023/08/18 07:44:44;;;;;;;2.65;1.77;;;32.80;99.90;;;;;;5075950;28;20197;-51
2023/08/18 07:47:11;;;;;;;2.30;1.23;;;33.00;99.90;;;;;;5079973;28;20557;-51
2023/08/18 07:49:38;;;;;;;3.47;1.02;;;33.30;99.10;;;;;;5088580;28;20277;-51
2023/08/18 07:52:05;;;;;;;2.10;1.00;;;32.80;97.90;;;;;;5075151;28;20221;-53
2023/08/18 07:54:32;;;;;;;1.20;1.08;;;32.10;97.50;;;;;;5064990;28;20205;-51
2023/08/18 07:57:02;;;;;;;1.95;1.30;;;32.40;99.20;;;;;;5069058;28;20604;-53
2023/08/18 07:59:29;;;;;;;2.30;1.23;;;32.60;98.60;;;;;;5062598;28;20332;-51
2023/08/18 08:01:56;;;;;;;3.83;1.20;;;33.20;98.80;;;;;;5064172;28;20225;-52
2023/08/18 08:04:23;;;;;;;1.02;1.00;;;32.80;99.20;;;;;;5062912;28;20217;-52
2023/08/18 08:06:52;;;;;;;2.30;2.03;;;33.20;96.20;;;;;;5065293;28;20599;-51
2023/08/18 08:09:21;;;;;;;3.28;1.30;;;32.70;95.40;;;;;;5072264;28;20223;-52
2023/08/18 08:11:48;;;;;;;3.60;1.10;;;32.80;97.70;;;;;;5051299;28;20250;-53
2023/08/18 08:14:16;;;;;;;1.45;1.05;;;32.00;97.20;;;;;;5069528;28;20315;-52
2023/08/18 08:16:43;;;;;;;2.03;1.30;;;31.40;96.90;;;;;;5071909;28;20201;-53
2023/08/18 08:19:10;;;;;;;1.13;1.02;;;31.40;99.30;;;;;;5071681;28;20251;-53
2023/08/18 08:21:38;;;;;;;2.85;1.10;;;31.40;98.90;;;;;;5071636;28;20225;-52
2023/08/18 08:24:06;;;;;;;2.65;1.00;;;31.70;99.90;;;;;;5078423;28;20275;-52
2023/08/18 08:26:33;;;;;;;3.65;1.50;;;32.30;97.80;;;;;;5087127;28;20212;-52
2023/08/18 08:29:00;;;;;;;3.22;1.50;;;32.50;97.80;;;;;;5088132;28;20258;-53
2023/08/18 08:31:29;;;;;;;1.90;1.75;;;32.50;97.20;;;;;;5071757;28;20221;-52
2023/08/18 08:33:56;;;;;;;2.28;1.08;;;31.80;97.40;;;;;;5077892;28;20269;-52
2023/08/18 08:36:22;;;;;;;2.00;1.50;;;31.50;95.80;;;;;;5080716;28;20213;-52
2023/08/18 08:38:49;;;;;;;3.35;1.60;;;31.60;96.90;;;;;;5078206;28;20200;-52
2023/08/18 08:41:16;;;;;;;3.67;2.13;;;32.10;98.30;;;;;;5110773;22;20220;-57
2023/08/18 08:43:43;;;;;;;5.25;1.35;;;32.10;96.50;;;;;;5097804;28;20582;-56
2023/08/18 08:46:10;;;;;;;2.30;0.90;;;32.40;97.80;;;;;;5102239;28;20226;-56
2023/08/18 08:48:46;;;;;;;3.40;1.88;;;32.40;97.90;;;;;;5108189;28;20199;-57
2023/08/18 08:51:15;;;;;;;3.33;1.15;;;32.20;97.00;;;;;;5088838;28;20215;-57
2023/08/18 08:53:47;;;;;;;3.33;1.52;;;31.40;97.10;;;;;;5102095;28;20197;-57
2023/08/18 08:56:17;;;;;;;3.17;1.17;;;30.80;97.80;;;;;;5088564;28;20290;-56
2023/08/18 08:58:45;;;;;;;3.88;0.90;;;31.00;99.90;;;;;;5102633;28;20286;-58
2023/08/18 09:01:12;;;;;;;2.78;1.25;;;31.80;99.50;;;;;;5092432;28;20221;-58
2023/08/18 09:03:43;;;;;;;2.72;1.23;;;32.00;99.10;;;;;;5099403;28;20220;-59
2023/08/18 09:06:11;;;;;;;4.32;1.70;;;32.70;97.10;;;;;;5096566;28;20258;-58
2023/08/18 09:08:38;;;;;;;1.77;0.95;;;33.10;97.30;;;;;;5096401;28;20253;-58
2023/08/18 09:11:05;;;;;;;9.52;1.70;;;33.50;96.90;;;;;;5111683;28;20245;-58
2023/08/18 09:13:33;;;;;;;4.38;1.65;;;33.60;98.40;;;;;;5102369;28;20200;-59
2023/08/18 09:16:03;;;;;;;2.70;1.17;;;34.10;95.20;;;;;;5091740;28;20261;-59
2023/08/18 09:18:31;;;;;;;4.25;1.40;;;34.00;94.60;;;;;;5091968;28;20208;-58
2023/08/18 09:21:00;;;;;;;3.40;1.20;;;34.40;94.10;;;;;;5091861;28;20220;-59
2023/08/18 09:23:28;;;;;;;1.70;1.02;;;34.10;93.50;;;;;;5093283;28;20311;-58
2023/08/18 09:25:57;;;;;;;2.17;1.02;;;34.40;95.00;;;;;;5095776;28;20197;-58
2023/08/18 09:28:24;;;;;;;2.47;1.33;;;34.00;93.90;;;;;;5095748;28;20291;-59
2023/08/18 09:30:52;;;;;;;1.95;1.58;;;34.10;95.40;;;;;;5101931;28;20223;-59
2023/08/18 09:33:22;;;;;;;5.40;1.92;;;34.60;95.80;;;;;;5096352;28;20192;-60
2023/08/18 09:35:59;;;;;;;5.03;1.30;;;34.30;96.60;;;;;;5093012;28;20525;-58
2023/08/18 09:38:27;;;;;;;2.75;1.13;;;34.70;95.90;;;;;;5094639;28;20287;-58
2023/08/18 09:40:56;;;;;;;3.38;1.13;;;34.70;94.20;;;;;;5107091;28;20314;-65
2023/08/18 09:43:24;;;;;;;2.15;1.77;;;35.00;93.90;;;;;;5093154;28;20263;-65
2023/08/18 09:45:53;;;;;;;3.38;1.48;;;34.60;93.80;;;;;;5095104;28;20204;-66
2023/08/18 09:48:22;;;;;;;3.17;1.42;;;34.70;98.40;;;;;;5098565;28;20201;-67
2023/08/18 09:50:52;;;;;;;3.88;1.38;;;34.20;93.10;;;;;;5099101;28;20706;-70
2023/08/18 09:53:25;;;;;;;3.70;1.55;;;34.30;96.70;;;;;;5095088;28;20608;-70
2023/08/18 09:55:57;;;;;;;4.28;1.23;;;34.40;95.40;;;;;;5095258;28;20200;-70
2023/08/18 09:58:33;;;;;;;4.32;1.10;;;34.60;96.80;;;;;;5105269;28;20603;-70
2023/08/18 10:01:00;;;;;;;1.38;1.10;;;34.70;95.10;;;;;;5094260;28;20578;-65
2023/08/18 10:03:27;;;;;;;3.60;1.58;;;34.30;92.80;;;;;;5088784;28;20279;-64
2023/08/18 10:05:55;;;;;;;1.50;1.35;;;34.70;95.10;;;;;;5085793;28;20300;-65
2023/08/18 10:08:24;;;;;;;5.15;1.33;;;35.00;92.20;;;;;;5091099;28;20624;-65
2023/08/18 10:10:51;;;;;;;5.47;1.55;;;35.00;93.80;;;;;;5094954;28;20737;-58
2023/08/18 10:13:19;;;;;;;2.78;1.27;;;35.30;92.10;;;;;;5094232;28;20200;-56
2023/08/18 10:15:47;;;;;;;2.13;1.38;;;35.10;92.50;;;;;;5091414;28;20203;-57
2023/08/18 10:18:14;;;;;;;3.22;2.00;;;35.40;92.30;;;;;;5094983;28;20488;-57
2023/08/18 10:20:51;;;;;;;5.72;1.90;;;35.20;94.40;;;;;;5100735;28;20913;-56
2023/08/18 10:23:19;;;;;;;2.13;1.92;;;35.10;93.30;;;;;;5089210;28;20661;-56
2023/08/18 10:25:51;;;;;;;2.53;1.17;;;34.80;93.80;;;;;;5094157;28;20287;-58
2023/08/18 10:28:19;;;;;;;2.28;1.83;;;35.30;91.60;;;;;;5104005;28;20195;-58
2023/08/18 10:30:51;;;;;;;3.45;1.98;;;35.40;94.70;;;;;;5094447;28;20502;-57
2023/08/18 10:33:30;;;;;;;2.88;1.60;;;34.90;92.30;;;;;;5088582;28;20663;-62
2023/08/18 10:35:58;;;;;;;6.72;2.15;;;35.00;93.80;;;;;;5089957;28;20258;-54
2023/08/18 10:38:29;;;;;;;5.38;1.60;;;35.20;92.80;;;;;;5090656;28;20192;-57
2023/08/18 10:40:57;;;;;;;7.60;2.25;;;35.60;92.80;;;;;;5080072;28;20251;-57
2023/08/18 10:43:27;;;;;;;3.47;1.15;;;35.70;93.80;;;;;;5073390;28;20197;-59
2023/08/18 10:45:59;;;;;;;3.70;1.20;;;35.50;90.70;;;;;;5073130;28;20280;-57
2023/08/18 10:48:30;;;;;;;4.05;1.10;;;35.40;89.20;;;;;;5076571;28;20204;-58
2023/08/18 10:50:57;;;;;;;6.97;1.27;;;35.30;90.40;;;;;;5083975;28;20636;-58
2023/08/18 10:53:24;;;;;;;4.75;1.33;;;35.50;91.50;;;;;;5091209;28;20196;-56
2023/08/18 10:55:54;;;;;;;3.08;1.40;;;35.20;91.80;;;;;;5073485;28;20201;-56
2023/08/18 10:58:23;;;;;;;2.50;2.30;;;34.60;87.70;;;;;;5073679;28;20280;-58
2023/08/18 11:00:50;;;;;;;3.70;3.25;;;34.30;94.30;;;;;;5073146;28;20213;-56
2023/08/18 11:03:19;;;;;;;3.83;2.65;;;34.00;96.10;;;;;;5072866;28;20260;-57
2023/08/18 11:05:47;;;;;;;2.78;2.58;;;33.50;96.60;;;;;;5082575;28;20216;-57
2023/08/18 11:08:14;;;;;;;4.07;1.75;;;33.10;97.90;;;;;;5082722;28;20243;-56
2023/08/18 11:10:43;;;;;;;3.30;3.03;;;32.90;97.60;;;;;;5075171;28;20266;-57
2023/08/18 11:13:21;;;;;;;4.10;2.42;;;32.70;96.80;;;;;;5074039;28;20552;-57
2023/08/18 11:15:50;;;;;;;2.50;2.38;;;32.40;99.50;;;;;;5086711;28;20192;-57
2023/08/18 11:18:17;;;;;;;3.38;2.60;;;32.10;99.40;;;;;;5082950;28;20193;-56
2023/08/18 11:20:44;;;;;;;2.47;2.08;;;32.00;99.30;;;;;;5073692;28;20638;-57
2023/08/18 11:23:11;;;;;;;3.13;2.42;;;32.00;99.90;;;;;;5075773;28;20683;-58
2023/08/18 11:25:38;;;;;;;3.70;2.10;;;31.70;99.90;;;;;;5101824;28;20256;-56
2023/08/18 11:28:08;;;;;;;2.30;2.20;;;31.60;99.90;;;;;;5088985;28;20253;-60
2023/08/18 11:30:35;;;;;;;5.45;2.05;;;31.60;99.90;;;;;;5081241;28;20266;-57
2023/08/18 11:33:06;;;;;;;2.42;2.38;;;31.50;99.90;;;;;;5082587;28;20200;-58
2023/08/18 11:35:33;;;;;;;5.97;2.58;;;31.30;99.90;;;;;;5087148;28;20206;-57
2023/08/18 11:38:00;;;;;;;2.65;2.22;;;31.50;99.90;;;;;;5082189;28;20630;-58
2023/08/18 11:40:27;;;;;;;2.17;2.08;;;31.30;99.90;;;;;;5082793;28;20705;-57
2023/08/18 11:42:57;;;;;;;4.60;2.95;;;31.30;99.90;;;;;;5080052;28;20208;-59
2023/08/18 11:45:25;;;;;;;2.85;2.65;;;31.10;99.30;;;;;;5080065;28;20815;-58
2023/08/18 11:47:59;;;;;;;5.03;3.00;;;30.90;99.90;;;;;;5081581;28;21217;-57
2023/08/18 11:50:34;;;;;;;2.22;2.13;;;30.80;99.90;;;;;;5077751;28;20209;-58
2023/08/18 11:53:03;;;;;;;2.58;2.13;;;30.80;99.90;;;;;;5079891;28;20200;-58
2023/08/18 11:55:31;;;;;;;4.47;2.50;;;30.50;99.90;;;;;;5081917;28;20207;-57
2023/08/18 11:57:58;;;;;;;4.82;2.95;;;30.90;99.90;;;;;;5081128;28;20296;-57
2023/08/18 12:00:34;;;;;;;2.67;2.47;;;30.80;99.90;;;;;;5080723;28;20197;-57
2023/08/18 12:03:02;;;;;;;2.75;2.55;;;30.60;99.90;;;;;;5086693;28;20257;-57
2023/08/18 12:05:30;;;;;;;1.90;1.90;;;30.60;99.90;;;;;;5078951;28;20230;-59
2023/08/18 12:08:08;;;;;;;3.00;1.90;;;30.70;99.90;;;;;;5079484;28;20196;-58
2023/08/18 12:10:35;;;;;;;4.93;2.30;;;30.70;99.90;;;;;;5084273;28;20277;-57
2023/08/18 12:13:05;;;;;;;7.78;2.70;;;30.70;99.90;;;;;;5081836;28;20252;-57
2023/08/18 12:15:33;;;;;;;2.22;2.13;;;30.60;99.90;;;;;;5078685;28;20595;-57
2023/08/18 12:18:00;;;;;;;3.08;2.75;;;30.60;99.90;;;;;;5082618;28;20192;-57
2023/08/18 12:20:27;;;;;;;2.40;2.30;;;30.50;99.90;;;;;;5081360;28;20382;-57
2023/08/18 12:22:54;;;;;;;2.38;2.22;;;30.50;99.90;;;;;;5077541;28;20634;-57
2023/08/18 12:25:24;;;;;;;6.10;2.40;;;30.20;99.90;;;;;;5079969;28;20310;-58
2023/08/18 12:27:51;;;;;;;2.40;2.20;;;30.30;99.90;;;;;;5078937;28;20205;-57
2023/08/18 12:30:19;;;;;;;3.85;1.70;;;30.40;99.90;;;;;;5081100;28;20197;-59
2023/08/18 12:32:48;;;;;;;3.50;2.38;;;30.30;99.90;;;;;;5091000;28;20200;-58
2023/08/18 12:35:15;;;;;;;6.60;1.77;;;30.20;99.90;;;;;;5084134;28;20250;-56
2023/08/18 12:37:42;;;;;;;4.13;2.60;;;30.30;99.90;;;;;;5079227;28;20193;-56
2023/08/18 12:40:10;;;;;;;3.90;1.88;;;30.30;99.90;;;;;;5080284;28;20200;-55
2023/08/18 12:42:39;;;;;;;3.63;1.92;;;30.30;99.90;;;;;;5079834;28;20224;-55
2023/08/18 12:45:08;;;;;;;3.90;1.95;;;30.30;99.90;;;;;;5084941;28;20220;-57
2023/08/18 12:47:35;;;;;;;5.03;1.50;;;30.30;98.70;;;;;;5082338;28;20199;-56
2023/08/18 12:50:03;;;;;;;4.30;1.90;;;30.30;99.30;;;;;;5080915;28;20208;-57
2023/08/18 12:52:30;;;;;;;1.98;1.80;;;30.40;97.70;;;;;;5078994;28;20216;-58
2023/08/18 12:54:57;;;;;;;5.18;1.42;;;30.30;97.50;;;;;;5080353;28;20225;-58